Time;durP1;ratioP1;P1;durP2;ratioP2;P2;SDS_P1;SDS_P2;PMS_P1;PMS_P2;Temp;Humidity;BMP_temperature;BMP_pressure;BME280_temperature;BME280_humidity;BME280_pressure;Samples;Min_cycle;Max_cycle;Signal;HPM_P1;HPM_P2
2021/06/01 00:02:30;;;;;;;16.50;11.90;;;;;;;;;;5012734;28;20417;-63
2021/06/01 00:05:16;;;;;;;17.60;11.93;;;;;;;;;;5013630;28;20049;-63
2021/06/01 00:08:01;;;;;;;15.52;11.95;;;;;;;;;;5013473;28;20049;-63
2021/06/01 00:10:47;;;;;;;15.65;12.35;;;;;;;;;;5013267;28;20045;-63
2021/06/01 00:13:32;;;;;;;13.85;11.80;;;;;;;;;;5013506;28;20132;-63
2021/06/01 00:16:17;;;;;;;15.40;12.30;;;;;;;;;;5013241;28;20132;-63
2021/06/01 00:19:03;;;;;;;16.50;12.95;;;;;;;;;;5013401;28;20053;-63
2021/06/01 00:21:48;;;;;;;18.38;12.52;;;;;;;;;;5013079;28;20045;-63
2021/06/01 00:24:34;;;;;;;16.23;12.65;;;;;;;;;;5013225;28;20054;-64
2021/06/01 00:27:20;;;;;;;15.48;12.90;;;;;;;;;;5013337;28;20057;-63
2021/06/01 00:30:05;;;;;;;16.85;13.05;;;;;;;;;;5011885;28;20046;-63
2021/06/01 00:32:51;;;;;;;18.85;12.23;;;;;;;;;;5012923;28;20042;-63
2021/06/01 00:35:36;;;;;;;21.45;13.57;;;;;;;;;;5012915;28;20053;-63
2021/06/01 00:38:21;;;;;;;16.27;12.05;;;;;;;;;;5012969;28;20050;-63
2021/06/01 00:41:07;;;;;;;15.85;12.95;;;;;;;;;;5012889;28;20403;-63
2021/06/01 00:43:52;;;;;;;19.45;14.25;;;;;;;;;;5013011;28;20046;-63
2021/06/01 00:46:37;;;;;;;14.80;13.10;;;;;;;;;;5012664;28;20511;-63
2021/06/01 00:49:23;;;;;;;16.40;12.98;;;;;;;;;;5012728;28;20050;-63
2021/06/01 00:52:09;;;;;;;18.42;13.45;;;;;;;;;;5013058;28;20056;-63
2021/06/01 00:54:54;;;;;;;15.70;12.20;;;;;;;;;;5012654;28;20049;-63
2021/06/01 00:57:39;;;;;;;18.23;13.05;;;;;;;;;;5012637;28;20054;-63
2021/06/01 01:03:29;;;;;;;16.35;12.50;;;;;;;;;;5012592;28;20061;-63
2021/06/01 01:06:35;;;;;;;17.30;13.65;;;;;;;;;;5012309;28;20212;-63
2021/06/01 01:09:21;;;;;;;17.05;13.25;;;;;;;;;;5012514;28;20115;-63
2021/06/01 01:12:07;;;;;;;20.45;13.98;;;;;;;;;;5011506;28;20046;-63
2021/06/01 01:14:53;;;;;;;17.13;13.15;;;;;;;;;;5012288;28;20089;-63
2021/06/01 01:17:39;;;;;;;17.92;13.80;;;;;;;;;;5011913;28;20050;-63
2021/06/01 01:20:37;;;;;;;19.92;14.95;;;;;;;;;;5012151;28;20391;-63
2021/06/01 01:23:22;;;;;;;19.05;14.25;;;;;;;;;;5011471;28;20056;-63
2021/06/01 01:26:16;;;;;;;25.80;14.68;;;;;;;;;;5012343;28;20469;-63
2021/06/01 01:29:04;;;;;;;17.75;13.52;;;;;;;;;;5011391;28;20133;-63
2021/06/01 01:31:56;;;;;;;22.40;13.98;;;;;;;;;;5011059;28;20070;-63
2021/06/01 01:34:41;;;;;;;21.08;15.18;;;;;;;;;;5011276;28;20049;-63
2021/06/01 01:37:27;;;;;;;19.65;15.20;;;;;;;;;;5011146;28;20057;-63
2021/06/01 01:40:13;;;;;;;21.55;14.63;;;;;;;;;;5011234;28;20060;-63
2021/06/01 01:43:07;;;;;;;21.77;14.65;;;;;;;;;;5012417;28;20584;-63
2021/06/01 01:46:01;;;;;;;20.52;14.50;;;;;;;;;;5011128;28;20484;-63
2021/06/01 01:49:01;;;;;;;19.33;14.82;;;;;;;;;;5012113;28;20077;-63
2021/06/01 01:51:48;;;;;;;20.65;14.98;;;;;;;;;;5011112;28;20046;-63
2021/06/01 01:54:33;;;;;;;20.17;13.48;;;;;;;;;;5011926;28;20408;-63
2021/06/01 01:57:18;;;;;;;19.63;14.98;;;;;;;;;;5011252;28;20065;-63
2021/06/01 02:00:07;;;;;;;20.77;14.63;;;;;;;;;;4997136;28;20116;-63
2021/06/01 02:02:53;;;;;;;24.83;14.63;;;;;;;;;;5011914;28;20054;-63
2021/06/01 02:05:38;;;;;;;21.27;14.50;;;;;;;;;;5010937;28;20132;-63
2021/06/01 02:08:23;;;;;;;18.33;14.27;;;;;;;;;;5010678;28;20061;-63
2021/06/01 02:11:09;;;;;;;20.17;15.05;;;;;;;;;;5010596;28;20140;-63
2021/06/01 02:13:58;;;;;;;19.65;14.88;;;;;;;;;;5011803;28;20049;-63
2021/06/01 02:16:44;;;;;;;21.83;15.48;;;;;;;;;;5011658;28;20492;-63
2021/06/01 02:19:29;;;;;;;22.52;14.93;;;;;;;;;;5011667;28;20042;-63
2021/06/01 02:23:46;;;;;;;22.83;14.68;;;;;;;;;;5011715;28;20108;-63
2021/06/01 02:25:33;;;;;;;23.13;16.30;;;;;;;;;;5011563;28;20467;-63
2021/06/01 02:28:21;;;;;;;21.90;14.70;;;;;;;;;;5013619;28;20057;-63
2021/06/01 02:31:09;;;;;;;20.75;14.57;;;;;;;;;;5014210;28;20049;-63
2021/06/01 02:33:55;;;;;;;22.83;14.82;;;;;;;;;;5014400;28;20140;-63
2021/06/01 02:36:40;;;;;;;22.42;15.18;;;;;;;;;;5015291;28;20132;-63
2021/06/01 02:39:25;;;;;;;21.67;15.90;;;;;;;;;;5014057;28;20056;-63
2021/06/01 02:42:10;;;;;;;20.73;15.15;;;;;;;;;;5015051;28;20045;-63
2021/06/01 02:44:56;;;;;;;24.15;16.75;;;;;;;;;;5014022;28;20042;-63
2021/06/01 02:47:41;;;;;;;21.00;16.20;;;;;;;;;;5014197;28;20135;-63
2021/06/01 02:50:28;;;;;;;20.60;16.17;;;;;;;;;;5013907;28;20041;-63
2021/06/01 02:53:14;;;;;;;26.05;17.02;;;;;;;;;;5014021;28;20042;-63
2021/06/01 02:56:00;;;;;;;25.58;17.27;;;;;;;;;;5013860;28;20061;-63
2021/06/01 02:58:46;;;;;;;24.63;17.45;;;;;;;;;;5014008;28;20204;-63
2021/06/01 03:01:32;;;;;;;24.92;17.50;;;;;;;;;;5014268;28;20117;-63
2021/06/01 03:04:17;;;;;;;23.83;16.67;;;;;;;;;;5014784;28;20112;-64
2021/06/01 03:07:02;;;;;;;23.08;15.63;;;;;;;;;;5014502;28;20455;-63
2021/06/01 03:09:48;;;;;;;21.50;16.10;;;;;;;;;;5014568;28;20057;-63
2021/06/01 03:15:21;;;;;;;25.48;17.25;;;;;;;;;;5014447;28;20049;-63
2021/06/01 03:18:07;;;;;;;25.55;16.98;;;;;;;;;;5014544;28;20049;-63
2021/06/01 03:20:52;;;;;;;23.20;16.88;;;;;;;;;;5014102;28;20512;-63
2021/06/01 03:23:37;;;;;;;26.13;16.45;;;;;;;;;;5014334;28;20049;-63
2021/06/01 03:26:23;;;;;;;28.45;17.63;;;;;;;;;;5014345;28;20053;-63
2021/06/01 03:29:09;;;;;;;27.85;17.63;;;;;;;;;;5014285;28;20136;-63
2021/06/01 03:31:54;;;;;;;24.70;17.23;;;;;;;;;;5014143;28;20042;-63
2021/06/01 03:34:39;;;;;;;24.48;16.40;;;;;;;;;;5014012;28;20403;-63
2021/06/01 03:37:25;;;;;;;24.58;17.02;;;;;;;;;;5014058;28;20100;-63
2021/06/01 03:40:10;;;;;;;21.67;15.65;;;;;;;;;;5013094;28;20135;-63
2021/06/01 03:42:56;;;;;;;25.08;16.80;;;;;;;;;;5014200;28;20054;-63
2021/06/01 03:45:41;;;;;;;24.25;15.98;;;;;;;;;;5013753;28;20504;-63
2021/06/01 03:48:27;;;;;;;24.08;15.55;;;;;;;;;;5013838;28;20049;-63
2021/06/01 03:51:12;;;;;;;23.77;14.75;;;;;;;;;;5013434;28;20046;-63
2021/06/01 03:53:58;;;;;;;23.30;15.82;;;;;;;;;;5013804;28;20050;-63
2021/06/01 03:56:43;;;;;;;24.63;15.35;;;;;;;;;;5013561;28;20076;-63
2021/06/01 03:59:29;;;;;;;21.33;16.30;;;;;;;;;;5013460;28;20042;-63
2021/06/01 04:02:14;;;;;;;21.38;15.23;;;;;;;;;;5013681;28;20054;-63
2021/06/01 04:05:00;;;;;;;21.10;16.42;;;;;;;;;;5013540;28;20054;-63
2021/06/01 04:07:46;;;;;;;23.17;15.00;;;;;;;;;;5013336;28;20050;-63
2021/06/01 04:10:32;;;;;;;23.65;17.23;;;;;;;;;;5013196;28;20037;-63
2021/06/01 04:13:17;;;;;;;24.33;17.48;;;;;;;;;;5013364;28;20053;-63
2021/06/01 04:16:03;;;;;;;27.52;17.38;;;;;;;;;;5013205;28;20046;-63
2021/06/01 04:18:48;;;;;;;22.23;16.08;;;;;;;;;;5013316;28;20052;-63
2021/06/01 04:21:35;;;;;;;27.10;17.63;;;;;;;;;;5013098;28;20408;-63
2021/06/01 04:24:21;;;;;;;22.92;16.58;;;;;;;;;;5013174;28;20091;-63
2021/06/01 04:27:07;;;;;;;20.40;15.30;;;;;;;;;;5012276;28;20049;-63
2021/06/01 04:29:53;;;;;;;24.55;16.27;;;;;;;;;;5013056;28;20049;-64
2021/06/01 04:32:38;;;;;;;21.02;15.25;;;;;;;;;;5012910;28;20038;-63
2021/06/01 04:35:23;;;;;;;20.17;14.02;;;;;;;;;;5012877;28;20053;-63
2021/06/01 04:38:09;;;;;;;20.58;14.60;;;;;;;;;;5012967;28;20046;-63
2021/06/01 04:40:54;;;;;;;16.70;13.73;;;;;;;;;;5012823;28;20506;-63
2021/06/01 04:43:40;;;;;;;18.55;13.68;;;;;;;;;;5013063;28;20583;-63
2021/06/01 04:46:25;;;;;;;18.95;13.00;;;;;;;;;;5012842;28;20054;-63
2021/06/01 04:49:11;;;;;;;18.38;13.32;;;;;;;;;;5012777;28;20531;-63
2021/06/01 04:51:56;;;;;;;18.42;12.43;;;;;;;;;;5011986;28;20050;-64
2021/06/01 04:54:41;;;;;;;15.82;11.73;;;;;;;;;;5012685;28;20050;-64
2021/06/01 04:57:27;;;;;;;13.25;11.10;;;;;;;;;;5012687;28;20420;-65
2021/06/01 05:00:12;;;;;;;16.02;11.75;;;;;;;;;;5012402;28;20046;-64
2021/06/01 05:02:58;;;;;;;14.65;11.65;;;;;;;;;;5012252;28;20417;-63
2021/06/01 05:05:43;;;;;;;15.38;11.10;;;;;;;;;;5011407;28;20049;-64
2021/06/01 05:08:29;;;;;;;19.13;11.07;;;;;;;;;;5010076;28;20050;-64
2021/06/01 05:11:15;;;;;;;14.82;9.82;;;;;;;;;;5011889;28;20463;-65
2021/06/01 05:14:00;;;;;;;14.65;10.82;;;;;;;;;;5011202;28;20130;-64
2021/06/01 05:16:46;;;;;;;12.88;10.52;;;;;;;;;;5012138;28;20104;-64
2021/06/01 05:19:31;;;;;;;14.55;10.55;;;;;;;;;;5009622;28;20042;-65
2021/06/01 05:22:17;;;;;;;12.98;11.30;;;;;;;;;;5010717;28;20149;-64
2021/06/01 05:25:02;;;;;;;15.30;10.70;;;;;;;;;;5011111;28;20054;-64
2021/06/01 05:27:48;;;;;;;15.73;11.10;;;;;;;;;;5009471;28;20170;-64
2021/06/01 05:33:27;;;;;;;11.30;10.15;;;;;;;;;;5012026;28;20053;-64
2021/06/01 05:36:12;;;;;;;14.73;9.98;;;;;;;;;;5012405;28;20051;-64
2021/06/01 05:38:58;;;;;;;14.20;10.25;;;;;;;;;;5012250;28;20129;-64
2021/06/01 05:41:43;;;;;;;12.88;9.90;;;;;;;;;;5012197;28;20061;-64
2021/06/01 05:44:29;;;;;;;13.77;9.20;;;;;;;;;;5012205;28;20060;-64
2021/06/01 05:47:15;;;;;;;13.02;9.65;;;;;;;;;;5012031;28;20540;-64
2021/06/01 05:50:01;;;;;;;14.38;9.55;;;;;;;;;;5011946;28;20173;-64
2021/06/01 05:52:47;;;;;;;11.43;9.32;;;;;;;;;;5012073;28;20085;-64
2021/06/01 05:55:32;;;;;;;13.32;9.18;;;;;;;;;;5011987;28;20057;-64
2021/06/01 05:58:17;;;;;;;10.52;8.82;;;;;;;;;;5012097;28;20037;-64
2021/06/01 06:01:03;;;;;;;10.85;8.20;;;;;;;;;;5011863;28;20108;-64
2021/06/01 06:03:48;;;;;;;8.60;7.40;;;;;;;;;;5014383;28;20123;-64
2021/06/01 06:06:33;;;;;;;10.10;7.68;;;;;;;;;;5054117;23;20083;-63
2021/06/01 06:09:19;;;;;;;10.73;6.65;;;;;;;;;;5015597;28;20538;-63
2021/06/01 06:12:04;;;;;;;10.52;6.72;;;;;;;;;;5015689;28;20049;-63
2021/06/01 06:14:49;;;;;;;8.13;7.28;;;;;;;;;;5015554;28;20410;-63
2021/06/01 06:17:43;;;;;;;10.25;7.03;;;;;;;;;;4995984;28;20054;-64
2021/06/01 06:20:29;;;;;;;9.35;6.70;;;;;;;;;;5003019;28;20411;-63
2021/06/01 06:23:15;;;;;;;8.82;6.68;;;;;;;;;;5005828;28;20041;-63
2021/06/01 06:26:00;;;;;;;8.90;7.25;;;;;;;;;;5002524;28;20508;-63
2021/06/01 06:28:46;;;;;;;9.05;6.40;;;;;;;;;;5004093;28;20432;-63
2021/06/01 06:31:32;;;;;;;9.50;6.18;;;;;;;;;;5005189;28;20049;-63
2021/06/01 06:34:17;;;;;;;7.55;6.50;;;;;;;;;;5001420;28;20428;-63
2021/06/01 06:37:04;;;;;;;8.45;6.40;;;;;;;;;;5003112;28;20125;-63
2021/06/01 06:39:50;;;;;;;8.63;6.63;;;;;;;;;;5004361;28;20677;-63
2021/06/01 06:42:36;;;;;;;9.10;6.53;;;;;;;;;;5005703;28;20050;-63
2021/06/01 06:45:23;;;;;;;9.30;7.18;;;;;;;;;;5002348;28;20070;-63
2021/06/01 06:48:10;;;;;;;8.23;6.50;;;;;;;;;;5004165;28;20049;-63
2021/06/01 06:50:55;;;;;;;7.25;5.85;;;;;;;;;;5005203;28;20474;-63
2021/06/01 06:53:56;;;;;;;8.88;5.40;;;;;;;;;;5002045;28;20121;-63
2021/06/01 06:56:42;;;;;;;11.75;5.75;;;;;;;;;;5004405;28;20054;-64
2021/06/01 06:59:29;;;;;;;6.40;5.38;;;;;;;;;;5004348;28;20046;-64
2021/06/01 07:02:15;;;;;;;8.07;5.70;;;;;;;;;;5005894;28;20041;-63
2021/06/01 07:05:01;;;;;;;8.43;5.70;;;;;;;;;;5014609;28;20046;-64
2021/06/01 07:07:49;;;;;;;7.15;5.68;;;;;;;;;;5014946;28;20439;-64
2021/06/01 07:10:34;;;;;;;7.70;5.63;;;;;;;;;;5014512;28;20042;-64
2021/06/01 07:13:21;;;;;;;7.75;5.72;;;;;;;;;;5015818;28;20052;-65
2021/06/01 07:16:07;;;;;;;8.10;6.10;;;;;;;;;;5014756;28;20045;-64
2021/06/01 07:18:52;;;;;;;8.35;5.07;;;;;;;;;;5014651;28;20050;-64
2021/06/01 07:21:38;;;;;;;7.13;5.10;;;;;;;;;;5015308;28;20057;-65
2021/06/01 07:24:24;;;;;;;7.85;5.57;;;;;;;;;;5015528;28;20056;-63
2021/06/01 07:27:29;;;;;;;5.45;4.90;;;;;;;;;;5013575;28;20054;-63
2021/06/01 07:30:14;;;;;;;6.75;4.50;;;;;;;;;;5014102;28;20073;-63
2021/06/01 07:33:20;;;;;;;6.38;4.38;;;;;;;;;;5013334;28;20393;-63
2021/06/01 07:36:06;;;;;;;4.85;3.55;;;;;;;;;;5013918;28;20077;-63
2021/06/01 07:39:05;;;;;;;6.18;4.22;;;;;;;;;;5014320;28;20053;-63
2021/06/01 07:41:51;;;;;;;5.68;3.88;;;;;;;;;;5013977;28;20056;-63
2021/06/01 07:44:36;;;;;;;4.78;3.90;;;;;;;;;;5013812;28;20638;-63
2021/06/01 07:47:22;;;;;;;10.77;4.20;;;;;;;;;;5013860;28;20108;-63
2021/06/01 07:50:08;;;;;;;6.45;3.67;;;;;;;;;;5013747;28;20492;-63
2021/06/01 07:52:55;;;;;;;6.40;3.13;;;;;;;;;;5013929;28;20053;-63
2021/06/01 07:55:41;;;;;;;7.88;3.22;;;;;;;;;;5013836;28;20430;-63
2021/06/01 07:58:48;;;;;;;5.25;2.72;;;;;;;;;;5012864;28;20109;-63
2021/06/01 08:01:34;;;;;;;5.43;3.35;;;;;;;;;;5013570;28;20089;-63
2021/06/01 08:04:20;;;;;;;4.28;2.85;;;;;;;;;;4998678;28;20047;-63
2021/06/01 08:07:08;;;;;;;3.67;2.88;;;;;;;;;;4991717;28;20133;-63
2021/06/01 08:09:54;;;;;;;6.18;2.78;;;;;;;;;;4993122;28;20109;-64
2021/06/01 08:12:40;;;;;;;7.30;3.10;;;;;;;;;;4993103;28;20046;-63
2021/06/01 08:15:36;;;;;;;3.90;2.92;;;;;;;;;;4993604;28;20050;-63
2021/06/01 08:18:24;;;;;;;3.08;2.28;;;;;;;;;;4993663;28;20057;-63
2021/06/01 08:24:02;;;;;;;4.07;2.40;;;;;;;;;;4993520;28;20116;-63
2021/06/01 08:26:48;;;;;;;4.55;2.67;;;;;;;;;;4993267;28;20411;-63
2021/06/01 08:29:33;;;;;;;5.25;3.38;;;;;;;;;;4993382;28;20060;-63
2021/06/01 08:32:18;;;;;;;3.65;2.00;;;;;;;;;;4993443;28;20100;-63
2021/06/01 08:35:05;;;;;;;2.40;2.20;;;;;;;;;;4993249;28;20050;-63
2021/06/01 08:37:51;;;;;;;2.22;1.70;;;;;;;;;;4993557;28;20054;-63
2021/06/01 08:40:36;;;;;;;3.70;2.10;;;;;;;;;;4993206;28;20409;-63
2021/06/01 08:43:24;;;;;;;2.88;2.08;;;;;;;;;;4993435;28;20128;-63
2021/06/01 08:46:10;;;;;;;4.03;2.20;;;;;;;;;;4993277;28;20058;-63
2021/06/01 08:48:55;;;;;;;4.72;2.38;;;;;;;;;;4993046;28;20061;-63
2021/06/01 08:51:41;;;;;;;3.10;1.80;;;;;;;;;;4993111;28;20133;-62
2021/06/01 08:54:28;;;;;;;4.50;1.83;;;;;;;;;;4992136;28;20416;-62
2021/06/01 08:57:13;;;;;;;2.60;1.50;;;;;;;;;;4992963;28;20416;-64
2021/06/01 08:59:58;;;;;;;5.38;1.30;;;;;;;;;;4992870;28;20185;-64
2021/06/01 09:02:44;;;;;;;2.92;1.50;;;;;;;;;;4993019;28;20423;-64
2021/06/01 09:05:29;;;;;;;4.50;1.83;;;;;;;;;;4992705;28;20412;-64
2021/06/01 09:08:17;;;;;;;2.78;1.50;;;;;;;;;;4992855;28;20038;-64
2021/06/01 09:24:03;;;;;;;3.33;1.45;;;;;;;;;;4975445;28;20527;-64
2021/06/01 09:29:41;;;;;;;4.57;1.50;;;;;;;;;;4992447;28;20531;-64
2021/06/01 09:32:26;;;;;;;3.00;1.30;;;;;;;;;;4991669;28;20057;-64
2021/06/01 09:35:12;;;;;;;3.28;1.50;;;;;;;;;;4991499;28;20097;-64
2021/06/01 09:38:00;;;;;;;3.00;1.90;;;;;;;;;;4992859;28;20049;-64
2021/06/01 09:40:46;;;;;;;2.60;1.60;;;;;;;;;;4996358;28;20523;-64
2021/06/01 09:43:31;;;;;;;3.60;1.77;;;;;;;;;;4996718;28;20061;-65
2021/06/01 09:46:20;;;;;;;2.75;1.70;;;;;;;;;;4996357;28;20405;-64
2021/06/01 09:49:17;;;;;;;3.30;1.10;;;;;;;;;;4995496;28;20124;-64
2021/06/01 09:52:08;;;;;;;3.92;1.80;;;;;;;;;;4997063;28;20566;-65
2021/06/01 09:54:58;;;;;;;1.75;1.02;;;;;;;;;;4998086;28;20128;-65
2021/06/01 09:57:44;;;;;;;1.30;1.17;;;;;;;;;;4996830;28;20053;-64
2021/06/01 10:00:30;;;;;;;1.98;1.23;;;;;;;;;;4997730;28;20130;-64
2021/06/01 10:03:23;;;;;;;2.22;1.30;;;;;;;;;;4997766;28;20050;-64
2021/06/01 10:06:09;;;;;;;4.18;1.50;;;;;;;;;;4998354;28;20554;-63
2021/06/01 10:08:54;;;;;;;2.95;1.20;;;;;;;;;;4998483;28;20408;-65
2021/06/01 10:11:39;;;;;;;2.38;1.20;;;;;;;;;;4997368;28;20046;-64
2021/06/01 10:14:25;;;;;;;2.95;2.03;;;;;;;;;;4996127;28;20051;-65
2021/06/01 10:17:10;;;;;;;3.22;1.38;;;;;;;;;;4996712;28;20056;-64
2021/06/01 10:19:55;;;;;;;3.85;1.15;;;;;;;;;;4997072;28;20451;-64
2021/06/01 10:22:41;;;;;;;2.28;1.80;;;;;;;;;;4997269;28;20042;-65
2021/06/01 10:25:26;;;;;;;6.10;1.30;;;;;;;;;;4996951;28;20053;-64
2021/06/01 10:28:11;;;;;;;1.85;1.10;;;;;;;;;;4997364;28;20045;-64
2021/06/01 10:30:57;;;;;;;4.05;1.23;;;;;;;;;;4995408;28;20439;-64
2021/06/01 10:33:43;;;;;;;1.52;0.98;;;;;;;;;;4995513;28;20512;-63
2021/06/01 10:42:33;;;;;;;2.85;1.10;;;;;;;;;;4995518;28;20126;-63
2021/06/01 10:51:28;;;;;;;3.45;1.05;;;;;;;;;;4995047;28;20050;-64
2021/06/01 10:54:20;;;;;;;1.63;1.23;;;;;;;;;;4995550;28;20042;-64
2021/06/01 10:57:06;;;;;;;1.27;0.93;;;;;;;;;;4994103;28;20429;-64
2021/06/01 11:02:43;;;;;;;;;;;;;;;;;;4995560;28;20049;-63
2021/06/01 11:05:28;;;;;;;2.83;0.85;;;;;;;;;;4995035;28;19965;-64
2021/06/01 11:08:14;;;;;;;2.25;0.98;;;;;;;;;;4993940;28;20425;-63
2021/06/01 11:10:59;;;;;;;3.30;0.90;;;;;;;;;;4993749;28;20042;-63
2021/06/01 11:13:44;;;;;;;3.10;0.98;;;;;;;;;;4994842;28;20173;-64
2021/06/01 11:16:48;;;;;;;1.48;1.10;;;;;;;;;;4995040;28;20169;-62
2021/06/01 11:19:49;;;;;;;1.42;0.95;;;;;;;;;;4996277;28;20061;-65
2021/06/01 11:22:41;;;;;;;4.07;1.10;;;;;;;;;;4996722;28;20046;-64
2021/06/01 11:34:23;;;;;;;2.90;0.98;;;;;;;;;;4994741;28;20053;-64
2021/06/01 11:37:25;;;;;;;1.05;0.75;;;;;;;;;;4994162;28;20046;-65
2021/06/01 11:40:26;;;;;;;1.33;0.90;;;;;;;;;;4981599;28;20247;-64
2021/06/01 11:43:12;;;;;;;1.77;0.80;;;;;;;;;;4978892;28;20046;-64
2021/06/01 11:51:38;;;;;;;2.55;0.90;;;;;;;;;;4974741;28;20051;-64
2021/06/01 11:54:23;;;;;;;1.55;0.95;;;;;;;;;;4974555;28;20049;-64
2021/06/01 12:03:05;;;;;;;1.73;0.90;;;;;;;;;;4974613;28;20039;-63
2021/06/01 12:12:27;;;;;;;2.10;0.93;;;;;;;;;;4974409;28;20055;-64
2021/06/01 12:21:17;;;;;;;2.60;1.20;;;;;;;;;;4973927;28;20053;-64
2021/06/01 12:24:13;;;;;;;4.70;0.90;;;;;;;;;;4974339;28;20055;-64
2021/06/01 12:27:03;;;;;;;2.22;1.02;;;;;;;;;;4974167;28;20055;-64
2021/06/01 12:32:52;;;;;;;5.15;1.40;;;;;;;;;;4991199;28;20046;-64
2021/06/01 12:36:08;;;;;;;4.68;1.10;;;;;;;;;;4991388;28;20042;-64
2021/06/01 12:42:04;;;;;;;1.67;1.38;;;;;;;;;;4983058;28;20042;-64
2021/06/01 12:44:50;;;;;;;1.92;1.10;;;;;;;;;;4989812;28;20045;-64
2021/06/01 13:05:21;;;;;;;2.38;1.20;;;;;;;;;;5005002;28;20137;-64
2021/06/01 13:31:19;;;;;;;4.05;1.60;;;;;;;;;;4981003;28;20098;-65
2021/06/01 13:46:25;;;;;;;5.80;1.58;;;;;;;;;;4989455;28;20038;-64
2021/06/01 13:49:14;;;;;;;2.22;1.67;;;;;;;;;;4985644;28;20046;-64
2021/06/01 14:00:52;;;;;;;3.00;1.70;;;;;;;;;;4990858;28;20054;-64
2021/06/01 14:09:59;;;;;;;3.03;1.38;;;;;;;;;;4990818;28;20559;-65
2021/06/01 14:21:52;;;;;;;3.08;1.50;;;;;;;;;;4991029;28;20057;-64
2021/06/01 14:28:05;;;;;;;5.00;1.60;;;;;;;;;;4994964;28;20558;-65
2021/06/01 14:56:54;;;;;;;7.68;2.65;;;;;;;;;;4992403;28;20150;-65
2021/06/01 15:07:27;;;;;;;121.43;27.88;;;;;;;;;;4990232;28;20061;-64
2021/06/01 15:32:31;;;;;;;5.47;2.03;;;;;;;;;;4978258;28;20042;-65
2021/06/01 15:50:47;;;;;;;5.28;1.95;;;;;;;;;;4986304;28;20497;-64
2021/06/01 16:30:11;;;;;;;3.38;2.35;;;;;;;;;;4989282;28;20100;-65
2021/06/01 16:33:19;;;;;;;2.85;1.85;;;;;;;;;;4990267;28;20515;-63
2021/06/01 16:42:30;;;;;;;5.25;1.67;;;;;;;;;;4988410;28;20053;-63
2021/06/01 17:06:47;;;;;;;2.75;1.83;;;;;;;;;;4993258;28;20061;-65
2021/06/01 17:12:38;;;;;;;5.65;2.25;;;;;;;;;;4989309;28;20112;-63
2021/06/01 17:15:23;;;;;;;3.53;1.63;;;;;;;;;;4991638;28;20070;-65
2021/06/01 17:18:15;;;;;;;2.67;1.60;;;;;;;;;;4992927;28;20065;-64
2021/06/01 17:24:22;;;;;;;2.10;1.73;;;;;;;;;;4992761;28;20061;-64
2021/06/01 17:36:20;;;;;;;2.90;2.00;;;;;;;;;;4990970;28;20180;-63
2021/06/01 17:39:06;;;;;;;1.98;1.75;;;;;;;;;;4991780;28;20133;-65
2021/06/01 17:41:55;;;;;;;4.03;2.80;;;;;;;;;;4991687;28;20524;-65
2021/06/01 17:44:40;;;;;;;3.53;2.17;;;;;;;;;;4991087;28;20054;-64
2021/06/01 17:47:27;;;;;;;5.88;2.22;;;;;;;;;;4990198;28;20058;-64
2021/06/01 17:50:12;;;;;;;5.60;2.00;;;;;;;;;;4989012;28;20057;-64
2021/06/01 17:52:58;;;;;;;3.38;2.17;;;;;;;;;;4984488;28;20065;-64
2021/06/01 17:55:43;;;;;;;2.75;2.22;;;;;;;;;;4990288;28;20041;-65
2021/06/01 17:58:28;;;;;;;5.57;2.42;;;;;;;;;;4985468;28;20053;-64
2021/06/01 18:01:15;;;;;;;3.17;2.88;;;;;;;;;;4994301;28;20209;-64
2021/06/01 18:04:00;;;;;;;5.45;2.60;;;;;;;;;;4993218;28;20070;-64
2021/06/01 18:06:47;;;;;;;4.43;2.45;;;;;;;;;;4993408;28;20440;-63
2021/06/01 18:09:56;;;;;;;3.67;2.60;;;;;;;;;;4993566;28;20042;-62
2021/06/01 18:37:23;;;;;;;7.03;3.47;;;;;;;;;;4992612;28;20053;-62
2021/06/01 19:50:12;;;;;;;9.05;4.90;;;;;;;;;;5011533;28;20353;-62
2021/06/01 19:52:58;;;;;;;5.72;4.28;;;;;;;;;;5010670;28;20046;-63
2021/06/01 19:55:44;;;;;;;8.07;4.70;;;;;;;;;;5013456;28;20049;-63
2021/06/01 19:58:30;;;;;;;7.35;5.13;;;;;;;;;;5012081;28;20046;-62
2021/06/01 20:01:15;;;;;;;6.95;5.03;;;;;;;;;;5013268;28;20037;-62
2021/06/01 20:04:01;;;;;;;6.80;5.32;;;;;;;;;;5012823;28;20067;-62
2021/06/01 20:06:46;;;;;;;6.05;5.10;;;;;;;;;;5012107;28;20056;-62
2021/06/01 20:09:32;;;;;;;6.45;5.28;;;;;;;;;;5011027;28;20127;-62
2021/06/01 20:12:17;;;;;;;6.50;4.90;;;;;;;;;;5012150;28;20081;-62
2021/06/01 20:15:04;;;;;;;10.52;5.57;;;;;;;;;;5012948;28;20065;-62
2021/06/01 20:17:49;;;;;;;9.13;5.88;;;;;;;;;;5011798;28;20049;-62
2021/06/01 20:20:35;;;;;;;8.55;5.25;;;;;;;;;;5009871;28;20046;-62
2021/06/01 20:23:20;;;;;;;11.25;5.65;;;;;;;;;;5011345;28;20050;-62
2021/06/01 20:26:06;;;;;;;5.97;5.30;;;;;;;;;;5011856;28;20065;-61
2021/06/01 20:28:52;;;;;;;9.63;5.90;;;;;;;;;;5010281;28;20049;-62
2021/06/01 20:31:39;;;;;;;6.90;6.20;;;;;;;;;;5010556;28;20054;-62
2021/06/01 20:34:25;;;;;;;7.43;6.15;;;;;;;;;;5011544;28;20046;-61
2021/06/01 20:37:10;;;;;;;7.70;6.03;;;;;;;;;;5012162;28;20045;-62
2021/06/01 20:39:55;;;;;;;8.05;5.70;;;;;;;;;;5011223;28;20050;-62
2021/06/01 20:42:42;;;;;;;8.02;5.90;;;;;;;;;;5010324;28;20042;-62
2021/06/01 20:45:29;;;;;;;10.00;5.55;;;;;;;;;;5011330;28;20054;-61
2021/06/01 20:48:15;;;;;;;7.97;6.00;;;;;;;;;;5011022;28;20057;-62
2021/06/01 20:51:01;;;;;;;10.32;6.18;;;;;;;;;;5011834;28;20046;-62
2021/06/01 20:53:46;;;;;;;9.85;6.78;;;;;;;;;;5009189;28;20104;-63
2021/06/01 20:56:31;;;;;;;8.60;6.07;;;;;;;;;;5011171;28;20510;-62
2021/06/01 20:59:17;;;;;;;7.30;5.82;;;;;;;;;;5011121;28;20056;-61
2021/06/01 21:02:02;;;;;;;7.95;6.38;;;;;;;;;;5009759;28;20049;-61
2021/06/01 21:04:48;;;;;;;18.33;6.05;;;;;;;;;;5010364;28;20140;-61
2021/06/01 21:07:34;;;;;;;10.15;6.97;;;;;;;;;;5010541;28;20046;-61
2021/06/01 21:10:19;;;;;;;6.78;5.88;;;;;;;;;;5010701;28;20495;-63
2021/06/01 21:13:04;;;;;;;6.63;5.32;;;;;;;;;;5011363;28;20057;-61
2021/06/01 21:15:50;;;;;;;7.00;6.22;;;;;;;;;;5010785;28;20046;-61
2021/06/01 21:18:35;;;;;;;7.07;5.97;;;;;;;;;;5010907;28;20053;-61
2021/06/01 21:21:21;;;;;;;8.18;5.60;;;;;;;;;;5011165;28;20054;-61
2021/06/01 21:24:08;;;;;;;8.52;5.18;;;;;;;;;;5011141;28;20108;-62
2021/06/01 21:26:53;;;;;;;7.05;5.30;;;;;;;;;;5010306;28;20057;-61
2021/06/01 21:29:39;;;;;;;7.53;5.55;;;;;;;;;;5010208;28;20054;-61
2021/06/01 21:32:36;;;;;;;8.13;5.50;;;;;;;;;;4991332;28;20073;-62
2021/06/01 21:35:22;;;;;;;7.05;5.82;;;;;;;;;;5001536;28;20501;-62
2021/06/01 21:38:08;;;;;;;10.23;5.95;;;;;;;;;;5014272;28;20060;-62
2021/06/01 21:40:53;;;;;;;9.30;6.05;;;;;;;;;;5010383;28;20492;-61
2021/06/01 21:43:41;;;;;;;7.88;6.20;;;;;;;;;;5010626;28;20057;-62
2021/06/01 21:46:26;;;;;;;7.97;6.20;;;;;;;;;;5010491;28;20119;-62
2021/06/01 21:49:12;;;;;;;7.35;6.20;;;;;;;;;;5010144;28;20045;-62
2021/06/01 21:51:58;;;;;;;9.02;5.90;;;;;;;;;;5008387;28;20049;-62
2021/06/01 21:54:43;;;;;;;8.40;5.75;;;;;;;;;;5011314;28;20132;-62
2021/06/01 21:57:28;;;;;;;6.88;6.15;;;;;;;;;;5012301;28;20458;-61
2021/06/01 22:00:16;;;;;;;9.02;6.53;;;;;;;;;;5011815;28;20068;-63
2021/06/01 22:03:02;;;;;;;8.55;6.97;;;;;;;;;;5012191;28;20069;-62
2021/06/01 22:05:47;;;;;;;9.10;7.05;;;;;;;;;;5012093;28;20046;-61
2021/06/01 22:08:33;;;;;;;10.57;6.97;;;;;;;;;;5011963;28;20057;-62
2021/06/01 22:11:19;;;;;;;8.48;6.97;;;;;;;;;;5010587;28;20046;-62
2021/06/01 22:14:04;;;;;;;8.02;6.78;;;;;;;;;;5012033;28;20046;-62
2021/06/01 22:17:07;;;;;;;9.02;6.75;;;;;;;;;;5011957;28;20415;-62
2021/06/01 22:19:52;;;;;;;9.43;6.97;;;;;;;;;;5011930;28;20061;-60
2021/06/01 22:22:38;;;;;;;10.30;8.05;;;;;;;;;;5012020;28;20061;-61
2021/06/01 22:25:23;;;;;;;8.63;6.90;;;;;;;;;;5010818;28;20061;-61
2021/06/01 22:28:08;;;;;;;9.75;7.30;;;;;;;;;;5011776;28;20515;-62
2021/06/01 22:30:54;;;;;;;9.55;7.00;;;;;;;;;;5011480;28;20443;-62
2021/06/01 22:33:40;;;;;;;13.68;6.95;;;;;;;;;;5010860;28;20046;-62
2021/06/01 22:36:29;;;;;;;9.25;7.45;;;;;;;;;;5011722;28;20069;-62
2021/06/01 22:39:15;;;;;;;9.82;7.18;;;;;;;;;;5011998;28;20046;-62
2021/06/01 22:42:00;;;;;;;9.10;7.05;;;;;;;;;;5011692;28;20061;-62
2021/06/01 22:44:45;;;;;;;10.32;7.63;;;;;;;;;;5012764;28;20072;-62
2021/06/01 22:47:30;;;;;;;9.77;6.68;;;;;;;;;;5014488;28;20089;-62
2021/06/01 22:50:15;;;;;;;12.68;7.75;;;;;;;;;;5014903;28;20046;-62
2021/06/01 22:53:01;;;;;;;7.78;6.88;;;;;;;;;;5015325;28;20458;-62
2021/06/01 22:55:46;;;;;;;8.80;7.40;;;;;;;;;;5015245;28;20041;-62
2021/06/01 22:58:33;;;;;;;10.55;8.10;;;;;;;;;;5015141;28;20053;-62
2021/06/01 23:01:22;;;;;;;7.55;6.57;;;;;;;;;;5014554;28;20184;-60
2021/06/01 23:04:10;;;;;;;12.68;8.18;;;;;;;;;;5014241;28;20050;-61
2021/06/01 23:06:58;;;;;;;8.93;7.85;;;;;;;;;;5014931;28;20470;-62
2021/06/01 23:09:43;;;;;;;12.05;7.35;;;;;;;;;;5014735;28;20057;-62
2021/06/01 23:12:29;;;;;;;10.70;6.78;;;;;;;;;;5013871;28;20049;-62
2021/06/01 23:15:14;;;;;;;10.63;7.75;;;;;;;;;;5014669;28;20507;-62
2021/06/01 23:18:00;;;;;;;8.45;7.07;;;;;;;;;;5014485;28;20049;-61
2021/06/01 23:20:46;;;;;;;8.27;6.43;;;;;;;;;;5013417;28;20133;-61